createdAt,value
2023-04-17T00:02:22.166Z,99.90
2023-04-17T00:04:49.352Z,99.90
2023-04-17T00:07:16.450Z,99.90
2023-04-17T00:09:43.336Z,99.90
2023-04-17T00:12:10.434Z,99.90
2023-04-17T00:14:37.357Z,99.90
2023-04-17T00:17:04.792Z,99.90
2023-04-17T00:19:31.707Z,99.90
2023-04-17T00:21:58.710Z,99.90
2023-04-17T00:24:25.623Z,99.90
2023-04-17T00:26:52.580Z,99.90
2023-04-17T00:29:19.410Z,99.90
2023-04-17T00:31:46.270Z,99.90
2023-04-17T00:34:14.229Z,99.90
2023-04-17T00:36:41.087Z,99.90
2023-04-17T00:39:07.938Z,99.90
2023-04-17T00:41:34.865Z,99.90
2023-04-17T00:44:01.853Z,99.90
2023-04-17T00:46:29.021Z,99.90
2023-04-17T00:48:56.985Z,99.90
2023-04-17T00:51:24.020Z,99.90
2023-04-17T00:53:51.927Z,99.90
2023-04-17T00:56:19.123Z,99.90
2023-04-17T00:58:49.516Z,99.90
2023-04-17T01:01:17.930Z,99.90
2023-04-17T01:03:45.186Z,99.90
2023-04-17T01:06:12.783Z,99.90
2023-04-17T01:08:43.393Z,99.90
2023-04-17T01:11:13.436Z,99.90
2023-04-17T01:13:51.003Z,99.90
2023-04-17T01:16:19.118Z,99.90
2023-04-17T01:18:49.007Z,99.90
2023-04-17T01:21:16.609Z,99.90
2023-04-17T01:23:52.688Z,99.90
2023-04-17T01:26:23.511Z,99.90
2023-04-17T01:28:57.152Z,99.90
2023-04-17T01:31:27.499Z,99.90
2023-04-17T01:33:55.808Z,99.90
2023-04-17T01:36:22.778Z,99.90
2023-04-17T01:38:49.692Z,99.90
2023-04-17T01:41:16.716Z,99.90
2023-04-17T01:43:47.378Z,99.90
2023-04-17T01:46:15.478Z,99.90
2023-04-17T01:48:42.566Z,99.90
2023-04-17T01:51:09.615Z,99.90
2023-04-17T01:53:40.089Z,99.90
2023-04-17T01:56:07.663Z,99.90
2023-04-17T01:58:34.555Z,99.90
2023-04-17T02:01:02.452Z,99.90
2023-04-17T02:03:31.346Z,99.90
2023-04-17T02:05:58.825Z,99.90
2023-04-17T02:08:26.055Z,99.90
2023-04-17T02:10:53.355Z,99.90
2023-04-17T02:13:20.264Z,99.90
2023-04-17T02:15:47.415Z,99.90
2023-04-17T02:18:14.385Z,99.90
2023-04-17T02:20:41.273Z,99.90
2023-04-17T02:23:08.668Z,99.90
2023-04-17T02:25:36.130Z,99.90
2023-04-17T02:28:03.273Z,99.90
2023-04-17T02:30:30.642Z,99.90
2023-04-17T02:32:58.171Z,99.90
2023-04-17T02:35:31.256Z,99.90
2023-04-17T02:37:58.277Z,99.90
2023-04-17T02:40:25.285Z,99.90
2023-04-17T02:42:52.150Z,99.90
2023-04-17T02:45:19.130Z,99.90
2023-04-17T02:47:46.126Z,99.90
2023-04-17T02:50:13.073Z,99.90
2023-04-17T02:52:40.834Z,99.90
2023-04-17T02:55:09.685Z,99.90
2023-04-17T02:57:36.826Z,99.90
2023-04-17T03:00:14.520Z,99.90
2023-04-17T03:02:42.136Z,99.90
2023-04-17T03:05:11.526Z,99.90
2023-04-17T03:07:38.453Z,99.90
2023-04-17T03:10:06.541Z,99.90
2023-04-17T03:12:33.392Z,99.90
2023-04-17T03:15:00.680Z,99.90
2023-04-17T03:17:27.568Z,99.90
2023-04-17T03:19:54.484Z,99.90
2023-04-17T03:22:21.420Z,99.90
2023-04-17T03:24:48.383Z,99.90
2023-04-17T03:27:15.592Z,99.90
2023-04-17T03:29:42.472Z,99.90
2023-04-17T03:32:09.373Z,99.90
2023-04-17T03:34:36.943Z,99.90
2023-04-17T03:37:03.843Z,99.90
2023-04-17T03:39:30.840Z,99.90
2023-04-17T03:41:57.705Z,99.90
2023-04-17T03:44:24.651Z,99.90
2023-04-17T03:46:51.508Z,99.90
2023-04-17T03:49:18.438Z,99.90
2023-04-17T03:51:45.572Z,99.90
2023-04-17T03:54:12.569Z,99.90
2023-04-17T03:56:39.477Z,99.90
2023-04-17T03:59:06.490Z,99.90
2023-04-17T04:01:33.354Z,99.90
2023-04-17T04:04:01.608Z,99.90
2023-04-17T04:06:29.665Z,99.90
2023-04-17T04:08:57.168Z,99.90
2023-04-17T04:11:24.202Z,99.90
2023-04-17T04:13:51.132Z,99.90
2023-04-17T04:16:18.205Z,99.90
2023-04-17T04:18:45.229Z,99.90
2023-04-17T04:21:12.390Z,99.90
2023-04-17T04:23:41.038Z,99.90
2023-04-17T04:26:08.003Z,99.90
2023-04-17T04:28:35.125Z,99.90
2023-04-17T04:31:02.600Z,99.90
2023-04-17T04:33:30.317Z,99.90
2023-04-17T04:36:01.002Z,99.90
2023-04-17T04:38:32.443Z,99.90
2023-04-17T04:41:05.903Z,99.90
2023-04-17T04:43:33.609Z,99.90
2023-04-17T04:46:00.747Z,99.90
2023-04-17T04:48:28.749Z,99.90
2023-04-17T04:50:58.470Z,99.90
2023-04-17T04:53:25.335Z,99.90
2023-04-17T04:55:52.799Z,99.90
2023-04-17T04:58:19.802Z,99.90
2023-04-17T05:00:47.775Z,99.90
2023-04-17T05:03:14.860Z,99.90
2023-04-17T05:05:43.252Z,99.90
2023-04-17T05:08:10.185Z,99.90
2023-04-17T05:10:37.497Z,99.90
2023-04-17T05:13:04.414Z,99.90
2023-04-17T05:15:31.341Z,99.90
2023-04-17T05:17:58.251Z,99.90
2023-04-17T05:20:26.223Z,99.90
2023-04-17T05:22:53.092Z,99.90
2023-04-17T05:25:20.686Z,99.90
2023-04-17T05:27:47.665Z,99.90
2023-04-17T05:30:15.664Z,99.90
2023-04-17T05:32:42.722Z,99.90
2023-04-17T05:35:10.065Z,99.90
2023-04-17T05:37:36.940Z,99.90
2023-04-17T05:40:06.984Z,99.90
2023-04-17T05:42:35.006Z,99.90
2023-04-17T05:45:02.145Z,99.90
2023-04-17T05:47:29.196Z,99.90
2023-04-17T05:49:58.178Z,99.90
2023-04-17T05:52:25.930Z,99.90
2023-04-17T05:54:52.994Z,99.90
2023-04-17T05:57:20.047Z,99.90
2023-04-17T05:59:47.426Z,99.90
2023-04-17T06:02:16.097Z,99.90
2023-04-17T06:04:44.280Z,99.90
2023-04-17T06:07:11.671Z,99.90
2023-04-17T06:09:40.334Z,99.90
2023-04-17T06:12:14.553Z,99.90
2023-04-17T06:14:42.057Z,99.90
2023-04-17T06:17:09.002Z,99.90
2023-04-17T06:19:36.086Z,99.90
2023-04-17T06:22:03.166Z,99.90
2023-04-17T06:24:30.242Z,99.90
2023-04-17T06:26:57.773Z,99.90
2023-04-17T06:29:24.670Z,99.90
2023-04-17T06:31:51.661Z,99.90
2023-04-17T06:34:18.594Z,99.90
2023-04-17T06:36:45.526Z,99.90
2023-04-17T06:39:12.671Z,99.90
2023-04-17T06:41:40.082Z,99.90
2023-04-17T06:44:07.591Z,99.90
2023-04-17T06:46:34.606Z,99.90
2023-04-17T06:49:02.565Z,99.90
2023-04-17T06:51:29.468Z,99.90
2023-04-17T06:53:56.423Z,99.90
2023-04-17T06:56:24.163Z,99.90
2023-04-17T06:58:54.038Z,99.90
2023-04-17T07:01:21.142Z,99.90
2023-04-17T07:03:48.270Z,99.90
2023-04-17T07:06:15.518Z,99.90
2023-04-17T07:08:42.515Z,99.90
2023-04-17T07:11:09.400Z,99.90
2023-04-17T07:13:36.346Z,99.90
2023-04-17T07:16:04.114Z,99.90
2023-04-17T07:18:31.102Z,99.90
2023-04-17T07:20:58.048Z,99.90
2023-04-17T07:23:25.179Z,99.90
2023-04-17T07:25:52.661Z,99.90
2023-04-17T07:28:19.804Z,99.90
2023-04-17T07:30:46.814Z,99.90
2023-04-17T07:33:13.772Z,99.90
2023-04-17T07:35:41.206Z,99.90
2023-04-17T07:38:08.211Z,99.90
2023-04-17T07:40:36.909Z,99.90
2023-04-17T07:43:04.152Z,99.90
2023-04-17T07:45:31.329Z,99.90
2023-04-17T07:47:58.340Z,99.90
2023-04-17T07:50:25.301Z,99.90
2023-04-17T07:52:52.239Z,99.90
2023-04-17T07:55:19.130Z,99.90
2023-04-17T07:57:46.840Z,99.60
2023-04-17T08:03:33.690Z,97.40
2023-04-17T08:06:00.825Z,97.00
2023-04-17T08:08:27.818Z,96.30
2023-04-17T08:10:54.872Z,96.20
2023-04-17T08:13:21.817Z,95.60
2023-04-17T08:15:49.042Z,95.50
2023-04-17T08:18:16.078Z,95.10
2023-04-17T08:20:42.979Z,94.60
2023-04-17T08:23:09.928Z,94.60
2023-04-17T08:25:36.903Z,94.20
2023-04-17T08:28:03.844Z,93.50
2023-04-17T08:30:30.946Z,93.90
2023-04-17T08:32:58.066Z,93.20
2023-04-17T08:35:26.496Z,93.20
2023-04-17T08:37:55.416Z,92.80
2023-04-17T08:40:24.336Z,92.40
2023-04-17T08:42:54.575Z,92.20
2023-04-17T08:45:26.842Z,92.20
2023-04-17T08:47:53.834Z,92.20
2023-04-17T08:50:21.939Z,92.00
2023-04-17T08:52:52.443Z,92.50
2023-04-17T08:55:25.315Z,92.70
2023-04-17T08:58:03.986Z,92.30
2023-04-17T09:00:37.592Z,92.20
2023-04-17T09:03:09.022Z,92.30
2023-04-17T09:05:37.357Z,91.90
2023-04-17T09:08:22.193Z,91.60
2023-04-17T09:10:53.150Z,91.20
2023-04-17T09:13:26.149Z,90.20
2023-04-17T09:16:08.446Z,89.70
2023-04-17T09:18:37.970Z,89.80
2023-04-17T09:21:07.268Z,89.00
2023-04-17T09:23:53.122Z,90.40
2023-04-17T09:26:27.175Z,91.10
2023-04-17T09:29:11.339Z,91.10
2023-04-17T09:31:42.700Z,90.80
2023-04-17T09:34:12.921Z,91.20
2023-04-17T09:36:43.328Z,91.50
2023-04-17T09:39:25.953Z,91.70
2023-04-17T09:42:05.551Z,92.30
2023-04-17T09:44:33.921Z,92.60
2023-04-17T09:47:04.794Z,92.40
2023-04-17T09:49:49.571Z,92.00
2023-04-17T09:52:17.036Z,91.50
2023-04-17T09:54:47.187Z,90.40
2023-04-17T09:57:14.062Z,90.00
2023-04-17T09:59:48.887Z,88.90
2023-04-17T10:02:19.536Z,89.80
2023-04-17T10:04:47.700Z,88.60
2023-04-17T10:07:16.180Z,89.40
2023-04-17T10:09:46.964Z,88.70
2023-04-17T10:12:20.324Z,88.00
2023-04-17T10:14:52.348Z,87.60
2023-04-17T10:17:33.938Z,87.60
2023-04-17T10:20:23.032Z,87.80
2023-04-17T10:22:55.822Z,86.70
2023-04-17T10:25:28.797Z,86.30
2023-04-17T10:28:02.347Z,86.30
2023-04-17T10:30:56.828Z,86.00
2023-04-17T10:33:26.262Z,83.20
2023-04-17T10:35:54.589Z,80.90
2023-04-17T10:38:36.435Z,81.40
2023-04-17T10:41:09.273Z,80.30
2023-04-17T10:43:44.015Z,78.90
2023-04-17T10:46:15.164Z,74.90
2023-04-17T10:48:53.218Z,68.70
2023-04-17T10:51:27.641Z,64.70
2023-04-17T10:54:06.372Z,64.30
2023-04-17T10:56:48.385Z,64.90
2023-04-17T10:59:18.915Z,67.00
2023-04-17T11:01:48.972Z,68.50
2023-04-17T11:04:31.846Z,71.70
2023-04-17T11:06:59.889Z,70.70
2023-04-17T11:09:29.458Z,70.90
2023-04-17T11:12:03.391Z,66.20
2023-04-17T11:14:31.251Z,64.70
2023-04-17T11:16:58.361Z,64.70
2023-04-17T11:19:26.075Z,60.40
2023-04-17T11:22:01.123Z,59.60
2023-04-17T11:24:31.843Z,57.80
2023-04-17T11:27:01.674Z,56.50
2023-04-17T11:29:29.101Z,53.10
2023-04-17T11:31:57.581Z,53.90
2023-04-17T11:34:27.272Z,54.00
2023-04-17T11:36:57.605Z,51.60
2023-04-17T11:39:28.792Z,51.60
2023-04-17T11:41:57.057Z,48.80
2023-04-17T11:44:25.935Z,50.60
2023-04-17T11:47:01.143Z,53.10
2023-04-17T11:49:38.221Z,55.00
2023-04-17T11:52:06.392Z,55.70
2023-04-17T11:54:38.653Z,57.40
2023-04-17T11:57:13.707Z,57.60
2023-04-17T11:59:44.410Z,57.60
2023-04-17T12:02:12.288Z,56.50
2023-04-17T12:04:40.326Z,55.80
2023-04-17T12:07:21.210Z,58.40
2023-04-17T12:09:57.401Z,59.90
2023-04-17T12:12:24.314Z,62.60
2023-04-17T12:14:51.257Z,65.00
2023-04-17T12:17:18.294Z,66.70
2023-04-17T12:19:45.518Z,66.60
2023-04-17T12:22:12.517Z,65.90
2023-04-17T12:24:39.446Z,66.50
2023-04-17T12:27:06.379Z,66.30
2023-04-17T12:29:43.967Z,60.40
2023-04-17T12:32:11.687Z,56.30
2023-04-17T12:34:38.766Z,53.10
2023-04-17T12:37:05.820Z,50.70
2023-04-17T12:39:33.206Z,50.20
2023-04-17T12:42:00.187Z,52.90
2023-04-17T12:44:27.043Z,55.00
2023-04-17T12:46:53.947Z,57.40
2023-04-17T12:49:21.447Z,59.80
2023-04-17T12:51:48.350Z,58.40
2023-04-17T12:54:15.332Z,56.00
2023-04-17T12:56:42.281Z,57.70
2023-04-17T12:59:09.196Z,55.30
2023-04-17T13:01:36.122Z,58.60
2023-04-17T13:04:03.681Z,59.80
2023-04-17T13:06:30.742Z,62.30
2023-04-17T13:08:57.700Z,63.70
2023-04-17T13:11:24.604Z,66.30
2023-04-17T13:13:51.475Z,67.40
2023-04-17T13:16:18.528Z,68.00
2023-04-17T13:18:45.561Z,68.10
2023-04-17T13:21:12.875Z,67.80
2023-04-17T13:23:39.919Z,67.90
2023-04-17T13:26:06.835Z,68.40
2023-04-17T13:28:33.730Z,68.00
2023-04-17T13:31:00.707Z,66.40
2023-04-17T13:33:27.700Z,66.60
2023-04-17T13:35:54.583Z,64.00
2023-04-17T13:38:21.697Z,64.30
2023-04-17T13:40:48.634Z,65.00
2023-04-17T13:43:15.591Z,63.50
2023-04-17T13:45:43.377Z,63.10
2023-04-17T13:48:11.469Z,63.00
2023-04-17T13:50:38.639Z,64.50
2023-04-17T13:53:05.870Z,65.30
2023-04-17T13:55:32.829Z,66.00
2023-04-17T13:58:01.071Z,65.50
2023-04-17T14:00:28.046Z,65.10
2023-04-17T14:02:55.037Z,64.20
2023-04-17T14:05:22.413Z,64.30
2023-04-17T14:07:49.312Z,65.50
2023-04-17T14:10:16.258Z,66.20
2023-04-17T14:12:43.777Z,65.80
2023-04-17T14:15:11.207Z,66.20
2023-04-17T14:17:42.721Z,65.80
2023-04-17T14:20:11.645Z,65.00
2023-04-17T14:22:39.042Z,65.20
2023-04-17T14:25:06.652Z,65.50
2023-04-17T14:27:36.212Z,65.70
2023-04-17T14:30:03.631Z,65.70
2023-04-17T14:32:30.757Z,66.90
2023-04-17T14:34:57.789Z,67.40
2023-04-17T14:37:26.088Z,67.00
2023-04-17T14:39:53.038Z,66.20
2023-04-17T14:42:20.036Z,66.10
2023-04-17T14:44:47.028Z,66.60
2023-04-17T14:47:14.016Z,67.80
2023-04-17T14:49:40.989Z,71.10
2023-04-17T14:52:08.251Z,73.50
2023-04-17T14:54:35.406Z,75.00
2023-04-17T14:57:02.364Z,76.90
2023-04-17T14:59:29.411Z,78.40
2023-04-17T15:01:56.478Z,80.50
2023-04-17T15:04:23.784Z,81.70
2023-04-17T15:06:50.913Z,82.00
2023-04-17T15:09:17.981Z,82.30
2023-04-17T15:11:46.751Z,81.60
2023-04-17T15:14:13.686Z,81.00
2023-04-17T15:16:40.745Z,78.80
2023-04-17T15:19:07.790Z,79.70
2023-04-17T15:21:34.778Z,80.50
2023-04-17T15:24:01.799Z,79.40
2023-04-17T15:26:28.847Z,78.80
2023-04-17T15:28:55.819Z,79.20
2023-04-17T15:31:22.929Z,80.80
2023-04-17T15:33:49.962Z,81.70
2023-04-17T15:36:17.077Z,84.10
2023-04-17T15:38:44.125Z,85.80
2023-04-17T15:41:11.149Z,88.70
2023-04-17T15:43:38.962Z,90.20
2023-04-17T15:46:06.077Z,90.60
2023-04-17T15:48:33.053Z,91.40
2023-04-17T15:51:03.754Z,92.00
2023-04-17T15:53:32.033Z,92.10
2023-04-17T15:55:59.111Z,92.20
2023-04-17T15:58:26.025Z,92.20
2023-04-17T16:00:52.947Z,92.10
2023-04-17T16:03:20.117Z,92.40
2023-04-17T16:05:47.231Z,92.00
2023-04-17T16:08:14.507Z,91.70
2023-04-17T16:10:41.723Z,91.80
2023-04-17T16:13:08.756Z,90.70
2023-04-17T16:15:35.792Z,91.10
2023-04-17T16:18:02.823Z,91.20
2023-04-17T16:20:30.552Z,91.00
2023-04-17T16:22:57.482Z,90.40
2023-04-17T16:25:24.617Z,90.10
2023-04-17T16:27:51.503Z,90.40
2023-04-17T16:30:18.587Z,90.00
2023-04-17T16:32:48.416Z,89.60
2023-04-17T16:35:15.964Z,90.10
2023-04-17T16:37:42.816Z,89.80
2023-04-17T16:40:11.457Z,88.60
2023-04-17T16:42:38.542Z,90.00
2023-04-17T16:45:06.626Z,89.90
2023-04-17T16:47:33.597Z,88.50
2023-04-17T16:50:00.603Z,88.30
2023-04-17T16:52:27.547Z,88.30
2023-04-17T16:54:54.447Z,88.20
2023-04-17T16:57:21.444Z,87.90
2023-04-17T16:59:48.378Z,88.10
2023-04-17T17:02:15.356Z,88.20
2023-04-17T17:04:44.664Z,88.30
2023-04-17T17:07:11.828Z,88.40
2023-04-17T17:09:38.787Z,88.20
2023-04-17T17:12:06.514Z,87.30
2023-04-17T17:14:33.380Z,87.40
2023-04-17T17:17:00.470Z,88.00
2023-04-17T17:19:27.409Z,88.00
2023-04-17T17:21:55.225Z,88.70
2023-04-17T17:24:22.085Z,88.40
2023-04-17T17:26:49.046Z,88.70
2023-04-17T17:29:16.148Z,88.40
2023-04-17T17:31:43.557Z,89.20
2023-04-17T17:34:24.993Z,89.50
2023-04-17T17:36:54.041Z,89.10
2023-04-17T17:39:21.746Z,89.10
2023-04-17T17:41:49.182Z,88.40
2023-04-17T17:44:16.100Z,88.60
2023-04-17T17:46:43.069Z,89.10
2023-04-17T17:49:10.386Z,90.00
2023-04-17T17:51:37.296Z,90.20
2023-04-17T17:54:04.327Z,90.20
2023-04-17T17:56:31.322Z,90.40
2023-04-17T17:58:58.319Z,90.50
2023-04-17T18:01:25.306Z,90.70
2023-04-17T18:03:52.874Z,90.70
2023-04-17T18:06:20.586Z,90.70
2023-04-17T18:08:47.542Z,90.60
2023-04-17T18:11:14.418Z,90.60
2023-04-17T18:13:41.492Z,90.60
2023-04-17T18:16:08.494Z,90.40
2023-04-17T18:18:35.791Z,90.60
2023-04-17T18:21:09.590Z,90.70
2023-04-17T18:23:36.827Z,90.80
2023-04-17T18:26:04.235Z,90.90
2023-04-17T18:28:32.876Z,91.00
2023-04-17T18:30:59.953Z,91.10
2023-04-17T18:33:28.643Z,91.40
2023-04-17T18:35:55.587Z,91.50
2023-04-17T18:38:22.493Z,91.80
2023-04-17T18:40:59.318Z,92.20
2023-04-17T18:43:27.073Z,92.50
2023-04-17T18:45:54.433Z,93.10
2023-04-17T18:48:21.642Z,93.20
2023-04-17T18:50:48.546Z,93.30
2023-04-17T18:53:15.435Z,93.40
2023-04-17T18:55:42.401Z,93.40
2023-04-17T18:58:09.367Z,93.20
2023-04-17T19:00:37.380Z,93.20
2023-04-17T19:03:04.932Z,93.20
2023-04-17T19:05:31.942Z,93.20
2023-04-17T19:07:58.865Z,93.30
2023-04-17T19:10:26.024Z,93.30
2023-04-17T19:12:52.963Z,93.10
2023-04-17T19:15:20.840Z,93.30
2023-04-17T19:17:47.833Z,93.20
2023-04-17T19:20:16.507Z,93.30
2023-04-17T19:22:43.409Z,93.30
2023-04-17T19:25:10.891Z,93.40
2023-04-17T19:27:37.777Z,93.30
2023-04-17T19:30:07.628Z,93.30
2023-04-17T19:32:34.576Z,93.30
2023-04-17T19:35:01.513Z,93.40
2023-04-17T19:37:28.487Z,93.50
2023-04-17T19:39:56.848Z,93.30
2023-04-17T19:42:23.911Z,93.30
2023-04-17T19:44:50.859Z,93.40
2023-04-17T19:47:17.795Z,93.70
2023-04-17T19:49:44.970Z,94.00
2023-04-17T19:52:12.517Z,94.40
2023-04-17T19:54:39.471Z,94.60
2023-04-17T19:57:06.369Z,94.80
2023-04-17T19:59:33.304Z,95.10
2023-04-17T20:02:00.225Z,95.30
2023-04-17T20:04:27.291Z,95.60
2023-04-17T20:06:54.327Z,95.60
2023-04-17T20:09:21.299Z,95.60
2023-04-17T20:11:48.506Z,95.60
2023-04-17T20:14:15.674Z,95.80
2023-04-17T20:16:45.154Z,95.90
2023-04-17T20:19:13.434Z,96.00
2023-04-17T20:21:40.510Z,96.10
2023-04-17T20:24:07.628Z,96.10
2023-04-17T20:26:37.147Z,96.30
2023-04-17T20:29:04.409Z,96.50
2023-04-17T20:31:33.705Z,96.60
2023-04-17T20:34:00.767Z,96.90
2023-04-17T20:36:28.085Z,97.00
2023-04-17T20:38:55.026Z,97.20
2023-04-17T20:41:21.977Z,97.50
2023-04-17T20:44:00.564Z,97.80
2023-04-17T20:46:29.036Z,98.20
2023-04-17T20:48:56.292Z,98.40
2023-04-17T20:51:26.197Z,98.80
2023-04-17T20:53:54.272Z,99.40
2023-04-17T20:56:21.940Z,99.60
2023-04-17T20:58:48.849Z,99.80
2023-04-17T21:01:16.680Z,99.90
2023-04-17T21:03:44.062Z,99.90
2023-04-17T21:06:11.407Z,99.90
2023-04-17T21:08:38.373Z,99.90
2023-04-17T21:11:05.304Z,99.90
2023-04-17T21:13:32.179Z,99.90
2023-04-17T21:15:59.038Z,99.90
2023-04-17T21:18:26.010Z,99.90
2023-04-17T21:20:52.976Z,99.90
2023-04-17T21:23:19.900Z,99.90
2023-04-17T21:25:46.998Z,99.90
2023-04-17T21:28:13.879Z,99.90
2023-04-17T21:30:40.828Z,99.90
2023-04-17T21:33:07.798Z,99.90
2023-04-17T21:35:36.454Z,99.90
2023-04-17T21:38:03.386Z,99.90
2023-04-17T21:40:33.379Z,99.90
2023-04-17T21:43:01.546Z,99.90
2023-04-17T21:45:28.543Z,99.90
2023-04-17T21:47:55.875Z,99.90
2023-04-17T21:50:23.079Z,99.90
2023-04-17T21:52:50.186Z,99.90
2023-04-17T21:55:17.048Z,99.90
2023-04-17T21:57:45.389Z,99.90
2023-04-17T22:00:14.321Z,99.90
2023-04-17T22:02:41.334Z,99.90
2023-04-17T22:05:08.876Z,99.90
2023-04-17T22:07:44.044Z,99.90
2023-04-17T22:10:18.595Z,99.90
2023-04-17T22:12:45.674Z,99.90
2023-04-17T22:15:12.689Z,99.90
2023-04-17T22:17:39.681Z,99.90
2023-04-17T22:20:08.255Z,99.90
2023-04-17T22:22:35.228Z,99.90
2023-04-17T22:25:02.096Z,99.90
2023-04-17T22:27:29.479Z,99.90
2023-04-17T22:29:56.500Z,99.90
2023-04-17T22:32:23.424Z,99.90
2023-04-17T22:34:50.426Z,99.90
2023-04-17T22:37:18.279Z,99.70
2023-04-17T22:39:45.328Z,99.70
2023-04-17T22:42:12.334Z,99.70
2023-04-17T22:44:39.275Z,99.70
2023-04-17T22:47:06.151Z,99.90
2023-04-17T22:49:37.825Z,99.90
2023-04-17T22:52:06.369Z,99.90
2023-04-17T22:54:34.314Z,99.90
2023-04-17T22:57:04.889Z,99.90
2023-04-17T22:59:31.909Z,99.90
2023-04-17T23:01:59.018Z,99.90
2023-04-17T23:04:26.027Z,99.90
2023-04-17T23:06:52.976Z,99.90
2023-04-17T23:09:19.939Z,99.90
2023-04-17T23:11:46.904Z,99.90
2023-04-17T23:14:14.029Z,99.90
2023-04-17T23:16:41.141Z,99.90
2023-04-17T23:19:08.120Z,99.90
2023-04-17T23:21:35.053Z,99.90
2023-04-17T23:24:02.007Z,99.90
2023-04-17T23:26:28.998Z,99.90
2023-04-17T23:28:55.847Z,99.90
2023-04-17T23:31:22.779Z,99.90
2023-04-17T23:33:49.918Z,99.90
2023-04-17T23:36:17.160Z,99.90
2023-04-17T23:38:44.076Z,99.90
2023-04-17T23:41:11.328Z,99.90
2023-04-17T23:43:38.173Z,99.90
2023-04-17T23:46:06.096Z,99.90
2023-04-17T23:48:33.011Z,99.90
2023-04-17T23:51:00.028Z,99.90
2023-04-17T23:53:26.956Z,99.90
2023-04-17T23:55:54.235Z,99.90
2023-04-17T23:58:21.172Z,99.90
